KDTL/DTL METAR and TAF weather

Enter ICAO airport designator
Station Type Date Time Source
KDTL METAR 2018/07/21 11:35 UTC NOAA

KDTL 211135Z AUTO 00000KT 7SM SCT019 16/16 A3010 RMK AO2


Station Type Date Time Source
KDTL Decoded METAR 2018/07/21 11:35 UTC NOAA

Detroit Lakes, Detroit Lakes Airport-Wething Field, MN, United States (KDTL) 46-50N 095-53W
Jul 21, 2018 - 07:35 AM EDT / 2018.07.21 1135 UTC
Wind: Calm:0
Visibility: 7 mile(s):0
Sky conditions: partly cloudy
Temperature: 60 F (16 C)
Dew Point: 60 F (16 C)
Relative Humidity: 100%
Pressure (altimeter): 30.1 in. Hg (1019 hPa)
ob: KDTL 211135Z AUTO 00000KT 7SM SCT019 16/16 A3010 RMK AO2
cycle: 11

Station Type Date Time Source
KDTL TAF UTC NOAA

Error!


Example: see airport list